Washington, IA

8:17 AM CDT on July 26, 2016 (GMT -0500)
Washington Municipal | | Change Station

Elev 755 ft 41.28 °N, 91.67 °W | Updated 2 minutes ago

Clear
Clear
73 °F
Feels Like 73 °F
N
5
Wind Variable Wind from Variable

Today
High -- | Low -- °F
--% Chance of Precip.
Yesterday
High -- | Low -- °F
Precip. -- in
Pressure 30.09 in
Visibility 10.0 miles
Clouds Clear
Dew Point 68 °F
Humidity 83%
Rainfall 0.00 in
Snow Depth Not available.
5:56 AM 8:29 PM
Waning Gibbous, 55% visible
METAR KAWG 261315Z AUTO VRB04KT 10SM CLR 23/20 A3009 RMK AO2
Pressure 30.09 in
Visibility 10.0 miles
Clouds Clear
Dew Point 68 °F
Humidity 83%
Rainfall 0.00 in
Snow Depth Not available.
5:56 AM 8:29 PM
Waning Gibbous, 55% visible
METAR KAWG 261315Z AUTO VRB04KT 10SM CLR 23/20 A3009 RMK AO2

10-Day Weather Forecast

Almanac

Astronomy

Jul. 26, 2016 Rise Set
Actual Time
Civil Twilight
Nautical Twilight
Astronomical Twilight
Moon
Length of Visible Light
Length of Day
Tomorrow will be .
, % of the Moon is Illuminated

Today's Extremes

State Highs State Lows

Community

WunderPhotos

Upload Photos

1,927,580 photos uploaded!

WunderBlog® & News

Nearby

Air Quality

  Air Quality AQ Index Pollutant
Not available.

Snow Depth

Station Depth Elevation

Earthquake Activity

City Distance Mag. Time & Date
Minimum magnitude displayed is 2.5.

Coastal Water Temperatures

Place Temperature

Stations

Nearby Weather Stations

Station Location Temp. Windchill Dew Point Humidity Wind Precip. Elev Updated Type
                   

Watches & Warnings

There are currently no watches in effect.